Time;durP1;ratioP1;P1;durP2;ratioP2;P2;SDS_P1;SDS_P2;PMS_P1;PMS_P2;Temp;Humidity;BMP_temperature;BMP_pressure;BME280_temperature;BME280_humidity;BME280_pressure;Samples;Min_cycle;Max_cycle;Signal;HPM_P1;HPM_P2
2021/06/13 00:01:18;;;;;;;10.35;3.85;;;12.90;76.70;;;;;;3606763;39;20071;-78
2021/06/13 00:03:45;;;;;;;18.73;6.13;;;12.90;75.90;;;;;;3607181;39;20078;-76
2021/06/13 00:06:11;;;;;;;9.27;3.90;;;12.90;76.80;;;;;;3607043;39;20039;-76
2021/06/13 00:08:37;;;;;;;9.63;3.45;;;12.80;76.80;;;;;;3607179;39;20068;-78
2021/06/13 00:11:03;;;;;;;10.40;3.60;;;12.80;76.60;;;;;;3606594;39;20039;-78
2021/06/13 00:13:29;;;;;;;13.45;3.95;;;12.80;76.80;;;;;;3606485;39;20241;-78
2021/06/13 00:15:56;;;;;;;11.95;3.88;;;12.80;76.50;;;;;;3606938;39;20314;-77
2021/06/13 00:18:22;;;;;;;11.07;3.97;;;12.70;77.20;;;;;;3606375;39;20050;-78
2021/06/13 00:20:49;;;;;;;7.90;2.67;;;12.70;77.00;;;;;;3607357;39;20124;-78
2021/06/13 00:23:15;;;;;;;11.40;3.47;;;12.70;76.50;;;;;;3606631;39;20128;-77
2021/06/13 00:25:41;;;;;;;9.23;3.05;;;12.60;77.40;;;;;;3606990;39;20051;-77
2021/06/13 00:28:07;;;;;;;6.82;3.22;;;12.60;76.80;;;;;;3607013;39;20318;-78
2021/06/13 00:30:34;;;;;;;11.27;3.30;;;12.60;76.30;;;;;;3607003;39;20136;-77
2021/06/13 00:33:00;;;;;;;11.95;4.30;;;12.60;76.60;;;;;;3606834;39;20644;-77
2021/06/13 00:35:26;;;;;;;9.23;3.20;;;12.50;76.80;;;;;;3607104;39;20047;-77
2021/06/13 00:37:52;;;;;;;12.18;4.82;;;12.50;76.50;;;;;;3607289;39;20047;-78
2021/06/13 00:40:20;;;;;;;9.23;3.40;;;12.50;76.60;;;;;;3606151;39;20127;-77
2021/06/13 00:42:46;;;;;;;7.90;4.00;;;12.40;76.50;;;;;;3606266;39;20128;-75
2021/06/13 00:45:13;;;;;;;12.98;4.10;;;12.40;76.80;;;;;;3606758;39;20047;-76
2021/06/13 00:47:40;;;;;;;11.68;4.97;;;12.40;77.40;;;;;;3607057;39;20042;-76
2021/06/13 00:50:11;;;;;;;10.18;3.50;;;12.30;77.10;;;;;;3606785;39;20048;-76
2021/06/13 00:52:36;;;;;;;9.13;4.30;;;12.30;77.30;;;;;;3607064;39;20497;-78
2021/06/13 00:55:03;;;;;;;13.02;3.40;;;12.20;77.00;;;;;;3605913;39;20039;-77
2021/06/13 00:57:29;;;;;;;7.15;2.75;;;12.20;77.50;;;;;;3603630;39;20375;-76
2021/06/13 00:59:55;;;;;;;13.05;3.35;;;12.10;77.30;;;;;;3606969;39;20051;-77
2021/06/13 01:02:23;;;;;;;10.48;4.32;;;12.10;78.00;;;;;;3605865;39;20083;-75
2021/06/13 01:04:50;;;;;;;8.43;3.85;;;12.10;78.40;;;;;;3606499;39;20051;-77
2021/06/13 01:07:27;;;;;;;13.60;3.75;;;12.00;78.70;;;;;;3606596;39;20320;-75
2021/06/13 01:10:09;;;;;;;10.75;3.92;;;12.00;79.20;;;;;;3606692;39;20055;-77
2021/06/13 01:12:48;;;;;;;11.45;4.85;;;11.90;79.50;;;;;;3605591;39;20066;-78
2021/06/13 01:15:23;;;;;;;8.25;2.75;;;11.90;78.20;;;;;;3606478;39;20055;-78
2021/06/13 01:18:01;;;;;;;6.10;3.60;;;11.90;78.40;;;;;;3607030;39;20047;-76
2021/06/13 01:20:32;;;;;;;9.50;4.35;;;11.90;79.70;;;;;;3595894;39;20044;-78
2021/06/13 01:23:34;;;;;;;12.90;4.88;;;11.80;78.60;;;;;;3601250;39;20051;-78
2021/06/13 01:26:28;;;;;;;12.73;4.68;;;11.80;81.50;;;;;;3606426;39;20063;-78
2021/06/13 01:29:01;;;;;;;11.38;4.78;;;11.70;80.80;;;;;;3606999;39;20072;-78
2021/06/13 01:31:40;;;;;;;13.55;4.00;;;11.70;80.80;;;;;;3605665;39;20055;-75
2021/06/13 01:34:11;;;;;;;12.45;4.72;;;11.60;80.20;;;;;;3605648;39;20044;-78
2021/06/13 01:36:38;;;;;;;14.70;5.03;;;11.60;80.40;;;;;;3606623;39;20163;-78
2021/06/13 01:39:12;;;;;;;15.57;8.13;;;11.60;80.30;;;;;;3606448;39;20397;-77
2021/06/13 01:41:40;;;;;;;14.32;4.60;;;11.60;80.20;;;;;;3606838;39;20035;-77
2021/06/13 01:44:06;;;;;;;11.25;4.15;;;11.50;80.10;;;;;;3606324;39;20051;-77
2021/06/13 01:46:36;;;;;;;8.48;4.15;;;11.50;80.30;;;;;;3606609;39;20330;-78
2021/06/13 01:49:03;;;;;;;9.05;4.88;;;11.50;80.20;;;;;;3605440;39;20043;-78
2021/06/13 01:51:31;;;;;;;15.10;5.70;;;11.50;80.00;;;;;;3606780;39;20055;-78
2021/06/13 01:53:58;;;;;;;13.00;6.05;;;11.40;80.20;;;;;;3606721;39;20058;-78
2021/06/13 01:56:25;;;;;;;11.75;5.10;;;11.40;80.70;;;;;;3607071;39;20344;-78
2021/06/13 01:58:51;;;;;;;9.95;4.43;;;11.40;81.10;;;;;;3605864;39;20073;-78
2021/06/13 02:01:22;;;;;;;11.18;5.07;;;11.30;81.00;;;;;;3606673;39;20127;-78
2021/06/13 02:03:51;;;;;;;11.60;5.13;;;11.30;81.00;;;;;;3607053;39;20050;-78
2021/06/13 02:06:22;;;;;;;14.55;5.10;;;11.30;81.10;;;;;;3605497;39;20066;-78
2021/06/13 02:08:48;;;;;;;14.85;4.18;;;11.30;81.60;;;;;;3606712;39;20039;-79
2021/06/13 02:11:15;;;;;;;13.75;4.22;;;11.20;81.10;;;;;;3606157;39;20070;-78
2021/06/13 02:13:44;;;;;;;14.13;4.10;;;11.30;80.90;;;;;;3605452;39;20035;-78
2021/06/13 02:16:11;;;;;;;10.68;3.90;;;11.20;81.20;;;;;;3606333;39;20044;-77
2021/06/13 02:18:38;;;;;;;13.90;4.95;;;11.30;81.40;;;;;;3606579;39;20047;-77
2021/06/13 02:21:07;;;;;;;12.98;3.55;;;11.20;81.80;;;;;;3606319;39;20409;-76
2021/06/13 02:23:34;;;;;;;11.13;4.18;;;11.20;82.20;;;;;;3606517;39;20321;-77
2021/06/13 02:26:01;;;;;;;8.30;3.88;;;11.20;82.00;;;;;;3605163;39;20444;-78
2021/06/13 02:28:28;;;;;;;10.20;5.07;;;11.20;83.20;;;;;;3605601;39;20326;-78
2021/06/13 02:30:58;;;;;;;8.02;3.75;;;11.20;85.20;;;;;;3606180;39;20414;-77
2021/06/13 02:33:24;;;;;;;14.77;4.60;;;11.10;83.20;;;;;;3605157;39;20089;-77
2021/06/13 02:35:54;;;;;;;8.23;3.88;;;11.10;83.50;;;;;;3605586;39;20326;-77
2021/06/13 02:38:21;;;;;;;14.77;4.70;;;11.10;83.20;;;;;;3606283;39;20321;-78
2021/06/13 02:40:48;;;;;;;11.98;4.97;;;11.10;82.90;;;;;;3606521;39;20054;-78
2021/06/13 02:43:14;;;;;;;18.08;5.60;;;11.10;83.70;;;;;;3606005;39;20095;-79
2021/06/13 02:45:40;;;;;;;14.07;5.55;;;11.10;83.60;;;;;;3606455;39;20061;-78
2021/06/13 02:48:07;;;;;;;12.75;4.80;;;11.00;84.30;;;;;;3605804;39;20091;-78
2021/06/13 02:50:33;;;;;;;12.52;4.53;;;11.00;83.80;;;;;;3605192;39;20042;-78
2021/06/13 02:53:26;;;;;;;11.52;4.10;;;11.00;84.60;;;;;;3604801;39;20132;-78
2021/06/13 02:56:01;;;;;;;13.40;4.22;;;11.00;85.90;;;;;;3596463;39;20113;-78
2021/06/13 02:59:24;;;;;;;10.93;4.38;;;11.00;84.30;;;;;;3604203;39;20245;-78
2021/06/13 03:01:52;;;;;;;12.18;5.22;;;10.90;88.10;;;;;;3578113;40;20048;-77
2021/06/13 03:04:19;;;;;;;13.23;4.72;;;10.90;84.60;;;;;;3575240;40;20066;-78
2021/06/13 03:06:48;;;;;;;13.65;4.78;;;10.90;83.90;;;;;;3591255;39;20128;-78
2021/06/13 03:09:15;;;;;;;12.38;5.80;;;10.90;84.40;;;;;;3595389;39;20198;-77
2021/06/13 03:11:42;;;;;;;14.40;4.63;;;10.90;84.80;;;;;;3595072;39;20052;-78
2021/06/13 03:14:09;;;;;;;16.50;5.32;;;10.90;84.20;;;;;;3604294;39;20051;-77
2021/06/13 03:16:36;;;;;;;15.60;4.97;;;10.90;84.20;;;;;;3606120;39;20046;-77
2021/06/13 03:19:03;;;;;;;13.40;5.43;;;10.90;86.10;;;;;;3605765;39;20336;-78
2021/06/13 03:21:30;;;;;;;13.85;5.95;;;10.90;85.00;;;;;;3605763;39;20054;-77
2021/06/13 03:23:57;;;;;;;9.18;4.60;;;10.90;85.10;;;;;;3604670;39;20044;-78
2021/06/13 03:26:24;;;;;;;10.48;4.80;;;10.90;84.70;;;;;;3605976;39;20124;-77
2021/06/13 03:28:54;;;;;;;14.63;5.45;;;10.90;84.90;;;;;;3605834;39;20466;-77
2021/06/13 03:31:21;;;;;;;9.98;5.85;;;10.90;85.30;;;;;;3605846;39;20129;-78
2021/06/13 03:33:48;;;;;;;14.32;5.22;;;10.90;86.10;;;;;;3605798;39;20047;-78
2021/06/13 03:36:16;;;;;;;14.35;6.57;;;10.90;85.60;;;;;;3605632;39;20044;-77
2021/06/13 03:38:44;;;;;;;10.02;4.05;;;10.90;86.00;;;;;;3606117;39;20103;-78
2021/06/13 03:41:10;;;;;;;14.68;5.57;;;10.90;86.10;;;;;;3605742;39;20044;-76
2021/06/13 03:43:36;;;;;;;15.68;5.88;;;10.90;85.70;;;;;;3605632;39;20039;-75
2021/06/13 03:46:03;;;;;;;8.00;4.35;;;11.00;86.40;;;;;;3604763;39;20042;-76
2021/06/13 03:48:30;;;;;;;14.32;5.68;;;11.00;86.10;;;;;;3607033;39;20322;-76
2021/06/13 03:50:58;;;;;;;15.20;5.10;;;11.00;86.40;;;;;;3606826;39;20046;-74
2021/06/13 03:53:24;;;;;;;13.70;6.43;;;11.00;86.20;;;;;;3607269;39;20318;-75
2021/06/13 03:55:53;;;;;;;11.95;5.15;;;11.10;85.90;;;;;;3607423;39;20124;-75
2021/06/13 03:58:24;;;;;;;14.30;5.03;;;11.10;85.20;;;;;;3597482;39;20485;-76
2021/06/13 04:00:52;;;;;;;14.65;7.15;;;11.10;85.40;;;;;;3607258;39;20085;-77
2021/06/13 04:03:20;;;;;;;15.23;5.82;;;11.10;85.40;;;;;;3597513;39;20050;-76
2021/06/13 04:05:48;;;;;;;19.00;6.22;;;11.10;85.30;;;;;;3607327;39;20325;-76
2021/06/13 04:08:15;;;;;;;16.13;6.93;;;11.10;85.80;;;;;;3606896;39;20711;-76
2021/06/13 04:10:46;;;;;;;11.23;5.10;;;11.10;86.00;;;;;;3607167;39;20590;-75
2021/06/13 04:13:14;;;;;;;13.52;4.70;;;11.20;85.70;;;;;;3606877;39;20342;-76
2021/06/13 04:15:41;;;;;;;13.73;4.97;;;11.20;85.50;;;;;;3607354;39;20116;-76
2021/06/13 04:18:09;;;;;;;15.23;6.03;;;11.40;85.40;;;;;;3606999;39;20042;-76
2021/06/13 04:20:36;;;;;;;14.52;4.82;;;11.60;85.00;;;;;;3607392;39;20333;-77
2021/06/13 04:23:04;;;;;;;13.93;4.95;;;11.70;85.20;;;;;;3605991;39;20040;-75
2021/06/13 04:25:31;;;;;;;15.30;4.80;;;11.80;84.80;;;;;;3606516;39;20124;-75
2021/06/13 04:27:57;;;;;;;14.70;5.90;;;12.00;84.80;;;;;;3607082;39;20310;-76
2021/06/13 04:30:24;;;;;;;14.35;5.05;;;12.10;84.80;;;;;;3606580;39;20117;-77
2021/06/13 04:32:51;;;;;;;12.05;5.05;;;12.20;84.50;;;;;;3607249;39;20067;-76
2021/06/13 04:35:17;;;;;;;12.10;5.03;;;12.40;84.40;;;;;;3606781;39;20035;-76
2021/06/13 04:37:43;;;;;;;9.45;4.07;;;12.60;84.20;;;;;;3607311;39;20082;-77
2021/06/13 04:40:10;;;;;;;13.68;4.50;;;12.80;83.40;;;;;;3606895;39;20576;-75
2021/06/13 04:42:36;;;;;;;10.60;4.15;;;13.00;83.20;;;;;;3607282;39;20046;-76
2021/06/13 04:45:08;;;;;;;12.93;4.63;;;13.20;82.50;;;;;;3606747;39;20140;-77
2021/06/13 04:47:37;;;;;;;11.50;4.30;;;13.40;82.20;;;;;;3606126;39;20052;-76
2021/06/13 04:50:05;;;;;;;14.82;4.93;;;13.60;81.70;;;;;;3607072;39;20322;-77
2021/06/13 04:52:31;;;;;;;11.02;4.28;;;13.80;81.60;;;;;;3606806;39;20174;-76
2021/06/13 04:55:11;;;;;;;11.52;4.65;;;13.90;81.50;;;;;;3606681;39;20036;-78
2021/06/13 04:57:57;;;;;;;11.30;4.72;;;14.10;82.00;;;;;;3606662;39;20132;-76
2021/06/13 05:00:23;;;;;;;17.85;5.35;;;14.20;81.00;;;;;;3606703;39;20090;-77
2021/06/13 05:02:49;;;;;;;9.70;3.50;;;14.40;80.80;;;;;;3606268;39;20041;-77
2021/06/13 05:05:16;;;;;;;10.00;3.65;;;14.60;80.70;;;;;;3606691;39;20320;-76
2021/06/13 05:07:42;;;;;;;9.35;3.58;;;14.70;80.60;;;;;;3605965;39;20039;-77
2021/06/13 05:10:09;;;;;;;11.02;4.65;;;14.80;80.30;;;;;;3605275;39;20044;-77
2021/06/13 05:12:52;;;;;;;12.75;4.30;;;15.00;80.60;;;;;;3605866;39;20031;-77
2021/06/13 05:15:22;;;;;;;12.23;3.10;;;15.20;81.60;;;;;;3605828;39;20040;-77
2021/06/13 05:17:49;;;;;;;10.93;3.47;;;15.40;80.10;;;;;;3606595;39;20116;-77
2021/06/13 05:20:15;;;;;;;16.35;4.40;;;15.60;79.80;;;;;;3606579;39;20772;-77
2021/06/13 05:23:01;;;;;;;9.10;3.80;;;15.90;79.30;;;;;;3606764;39;20237;-75
2021/06/13 05:25:29;;;;;;;17.23;4.07;;;16.10;79.30;;;;;;3606019;39;20036;-77
2021/06/13 05:27:56;;;;;;;11.25;3.42;;;16.10;78.70;;;;;;3602642;39;20035;-75
2021/06/13 05:30:24;;;;;;;9.02;3.28;;;16.20;78.90;;;;;;3606868;39;20332;-76
2021/06/13 05:32:50;;;;;;;8.73;3.42;;;16.30;78.90;;;;;;3605693;39;20054;-76
2021/06/13 05:35:17;;;;;;;8.73;4.85;;;16.30;79.30;;;;;;3605910;39;20047;-76
2021/06/13 05:37:43;;;;;;;11.52;5.07;;;16.40;79.20;;;;;;3606741;39;20336;-77
2021/06/13 05:40:10;;;;;;;12.57;4.18;;;16.50;79.30;;;;;;3606341;39;20039;-76
2021/06/13 05:42:36;;;;;;;9.07;3.63;;;16.60;79.30;;;;;;3606805;39;20452;-76
2021/06/13 05:45:05;;;;;;;10.88;3.90;;;16.80;79.20;;;;;;3605427;39;20340;-76
2021/06/13 05:47:31;;;;;;;7.10;4.18;;;16.90;78.80;;;;;;3606539;39;20036;-75
2021/06/13 05:49:57;;;;;;;9.45;4.10;;;17.00;78.40;;;;;;3606336;39;20425;-78
2021/06/13 05:52:23;;;;;;;12.70;5.03;;;17.10;78.30;;;;;;3605865;39;20117;-76
2021/06/13 05:54:48;;;;;;;8.27;3.63;;;17.10;79.10;;;;;;3606374;39;20070;-76
2021/06/13 05:57:14;;;;;;;10.95;3.60;;;17.20;78.40;;;;;;3605899;39;20043;-75
2021/06/13 05:59:40;;;;;;;6.47;3.33;;;17.30;78.20;;;;;;3606468;39;20035;-77
2021/06/13 06:02:07;;;;;;;7.38;3.38;;;17.40;77.90;;;;;;3606046;39;20418;-77
2021/06/13 06:04:32;;;;;;;12.95;4.05;;;17.40;77.60;;;;;;3606451;39;20332;-76
2021/06/13 06:06:58;;;;;;;8.35;2.78;;;17.50;77.40;;;;;;3606189;39;20083;-78
2021/06/13 06:09:24;;;;;;;8.70;3.58;;;17.60;77.80;;;;;;3605155;39;20047;-77
2021/06/13 06:11:50;;;;;;;6.72;3.67;;;17.70;78.00;;;;;;3606306;39;20143;-76
2021/06/13 06:14:16;;;;;;;8.95;4.18;;;17.80;78.50;;;;;;3605784;39;20090;-75
2021/06/13 06:16:42;;;;;;;11.18;3.78;;;17.80;78.00;;;;;;3606390;39;20051;-77
2021/06/13 06:19:08;;;;;;;9.57;3.90;;;17.90;78.00;;;;;;3605071;39;20082;-76
2021/06/13 06:21:34;;;;;;;7.45;3.25;;;17.90;79.00;;;;;;3596822;39;20054;-76
2021/06/13 06:24:00;;;;;;;13.02;3.70;;;18.00;79.50;;;;;;3606229;39;20040;-77
2021/06/13 06:26:26;;;;;;;10.05;3.25;;;18.10;79.50;;;;;;3605581;39;20482;-77
2021/06/13 06:28:52;;;;;;;11.63;3.85;;;18.30;79.20;;;;;;3606245;39;20359;-77
2021/06/13 06:31:18;;;;;;;6.47;3.17;;;18.40;78.70;;;;;;3605809;39;20525;-77
2021/06/13 06:33:44;;;;;;;9.00;3.10;;;18.50;78.50;;;;;;3606004;39;20497;-76
2021/06/13 06:36:09;;;;;;;9.02;3.08;;;18.60;78.00;;;;;;3605921;39;20043;-77
2021/06/13 06:38:35;;;;;;;7.35;2.95;;;18.70;77.40;;;;;;3596065;39;20235;-78
2021/06/13 06:41:01;;;;;;;6.07;3.03;;;18.80;76.60;;;;;;3606341;39;20043;-77
2021/06/13 06:43:27;;;;;;;7.00;2.30;;;18.90;76.30;;;;;;3605187;39;20048;-77
2021/06/13 06:45:53;;;;;;;6.95;2.15;;;19.10;75.90;;;;;;3605852;39;20091;-78
2021/06/13 06:48:19;;;;;;;3.58;1.85;;;19.20;74.50;;;;;;3605799;39;20039;-77
2021/06/13 06:50:45;;;;;;;5.72;1.92;;;19.20;73.50;;;;;;3606079;39;20049;-77
2021/06/13 06:53:11;;;;;;;8.93;2.63;;;19.40;72.50;;;;;;3606313;39;20047;-77
2021/06/13 06:55:37;;;;;;;6.25;2.10;;;19.50;72.50;;;;;;3604898;39;20047;-77
2021/06/13 06:58:03;;;;;;;3.92;1.65;;;19.60;71.60;;;;;;3596586;39;20079;-78
2021/06/13 07:00:29;;;;;;;5.63;1.65;;;19.60;71.30;;;;;;3605215;39;20043;-76
2021/06/13 07:02:55;;;;;;;5.00;2.22;;;19.80;71.20;;;;;;3605791;39;20031;-77
2021/06/13 07:05:21;;;;;;;6.75;3.17;;;19.90;71.10;;;;;;3605228;39;20370;-77
2021/06/13 07:07:47;;;;;;;9.75;3.53;;;20.00;71.20;;;;;;3605890;39;20125;-77
2021/06/13 07:10:14;;;;;;;6.22;3.15;;;20.20;71.10;;;;;;3604649;39;20052;-77
2021/06/13 07:12:40;;;;;;;7.78;2.47;;;20.30;71.10;;;;;;3605765;39;20044;-77
2021/06/13 07:15:10;;;;;;;9.75;3.08;;;20.40;70.00;;;;;;3605561;39;20039;-77
2021/06/13 07:17:36;;;;;;;4.65;2.05;;;20.60;69.50;;;;;;3605665;39;20136;-77
2021/06/13 07:20:04;;;;;;;6.80;2.22;;;20.80;69.70;;;;;;3605837;39;20035;-78
2021/06/13 07:22:30;;;;;;;6.15;2.38;;;21.20;68.20;;;;;;3606490;39;20054;-78
2021/06/13 07:24:57;;;;;;;7.47;2.30;;;21.80;67.20;;;;;;3607177;39;20289;-77
2021/06/13 07:27:24;;;;;;;4.88;1.92;;;22.30;65.70;;;;;;3607431;39;20043;-78
2021/06/13 07:29:50;;;;;;;4.55;1.83;;;22.70;62.70;;;;;;3606342;39;20055;-77
2021/06/13 07:32:16;;;;;;;4.78;1.40;;;22.70;62.70;;;;;;3607096;39;20035;-78
2021/06/13 07:34:42;;;;;;;6.95;3.05;;;22.80;61.90;;;;;;3607388;39;20424;-78
2021/06/13 07:37:08;;;;;;;7.70;2.38;;;22.50;62.10;;;;;;3606924;39;20047;-78
2021/06/13 07:39:34;;;;;;;4.70;1.52;;;22.30;63.10;;;;;;3606602;39;20040;-78
2021/06/13 07:42:01;;;;;;;6.90;1.92;;;22.10;62.90;;;;;;3607181;39;20043;-78
2021/06/13 07:44:29;;;;;;;2.80;1.08;;;22.00;64.90;;;;;;3607324;39;20073;-78
2021/06/13 07:46:58;;;;;;;6.20;2.33;;;22.00;63.30;;;;;;3606918;39;20566;-79
2021/06/13 07:49:24;;;;;;;6.32;1.92;;;22.00;61.70;;;;;;3607226;39;20047;-79
2021/06/13 07:51:50;;;;;;;4.65;1.40;;;21.90;63.50;;;;;;3607492;39;20039;-78
2021/06/13 07:54:16;;;;;;;6.70;1.20;;;21.80;64.30;;;;;;3605794;39;20039;-78
2021/06/13 07:56:42;;;;;;;6.25;1.85;;;21.90;65.90;;;;;;3606260;39;20132;-79
2021/06/13 07:59:08;;;;;;;7.68;2.40;;;21.80;66.60;;;;;;3605795;39;20049;-77
2021/06/13 08:01:34;;;;;;;6.13;2.15;;;21.80;67.50;;;;;;3607182;39;20035;-78
2021/06/13 08:04:00;;;;;;;6.30;2.08;;;21.70;67.70;;;;;;3606976;39;20047;-78
2021/06/13 08:06:26;;;;;;;5.70;2.63;;;21.90;68.00;;;;;;3607392;39;20504;-78
2021/06/13 08:08:52;;;;;;;7.25;3.20;;;21.80;68.20;;;;;;3607206;39;20040;-78
2021/06/13 08:11:18;;;;;;;4.32;1.90;;;21.80;68.80;;;;;;3597377;39;20042;-78
2021/06/13 08:13:44;;;;;;;3.67;1.63;;;22.10;70.50;;;;;;3606240;39;20051;-78
2021/06/13 08:16:09;;;;;;;7.18;2.40;;;22.40;69.70;;;;;;3606727;39;20138;-79
2021/06/13 08:18:35;;;;;;;6.85;2.30;;;22.60;69.30;;;;;;3606343;39;20039;-78
2021/06/13 08:21:02;;;;;;;7.97;1.83;;;22.70;68.50;;;;;;3606757;39;20039;-78
2021/06/13 08:23:31;;;;;;;5.05;2.22;;;22.80;69.10;;;;;;3607077;39;20322;-78
2021/06/13 08:25:58;;;;;;;7.05;2.13;;;23.10;67.40;;;;;;3606748;39;20047;-79
2021/06/13 08:28:26;;;;;;;4.45;1.45;;;23.20;67.00;;;;;;3597766;39;20069;-78
2021/06/13 08:30:52;;;;;;;4.57;1.30;;;23.30;65.90;;;;;;3606812;39;20136;-78
2021/06/13 08:33:18;;;;;;;5.45;1.92;;;23.50;66.00;;;;;;3604879;39;20039;-79
2021/06/13 08:35:44;;;;;;;3.83;1.65;;;23.80;65.00;;;;;;3606093;39;20035;-79
2021/06/13 08:38:10;;;;;;;3.53;1.40;;;24.20;64.70;;;;;;3606693;39;20222;-78
2021/06/13 08:40:37;;;;;;;4.95;1.13;;;24.80;63.90;;;;;;3606124;39;20262;-78
2021/06/13 08:43:03;;;;;;;6.30;1.75;;;25.10;62.00;;;;;;3606570;39;20047;-78
2021/06/13 08:45:32;;;;;;;3.65;1.60;;;25.30;60.90;;;;;;3606654;39;20330;-78
2021/06/13 08:47:59;;;;;;;6.88;2.10;;;25.60;60.10;;;;;;3606598;39;20311;-79
2021/06/13 08:50:26;;;;;;;4.72;2.20;;;25.70;59.00;;;;;;3606645;39;20039;-78
2021/06/13 08:52:53;;;;;;;4.18;2.08;;;25.80;57.90;;;;;;3606734;39;20054;-78
2021/06/13 08:55:21;;;;;;;6.00;1.92;;;25.90;58.70;;;;;;3605542;39;20035;-78
2021/06/13 08:57:48;;;;;;;3.35;1.50;;;26.00;56.60;;;;;;3605620;39;20035;-78
2021/06/13 09:00:19;;;;;;;5.70;2.03;;;26.10;57.50;;;;;;3605768;39;20600;-79
2021/06/13 09:02:45;;;;;;;3.92;1.52;;;26.20;55.80;;;;;;3606964;39;20592;-79
2021/06/13 09:05:18;;;;;;;6.22;1.83;;;26.30;55.10;;;;;;3605664;39;20043;-78
2021/06/13 09:08:11;;;;;;;4.90;1.85;;;26.30;55.00;;;;;;3606863;39;20071;-78
2021/06/13 09:10:40;;;;;;;2.72;1.00;;;26.10;48.00;;;;;;3603134;39;20035;-78
2021/06/13 09:13:19;;;;;;;4.60;1.23;;;25.90;55.90;;;;;;3606349;39;20120;-78
2021/06/13 09:15:47;;;;;;;4.22;2.58;;;25.70;52.40;;;;;;3604666;39;20039;-77
2021/06/13 09:18:31;;;;;;;4.57;1.92;;;25.70;55.50;;;;;;3614007;39;20035;-79
2021/06/13 09:20:58;;;;;;;3.10;1.40;;;25.90;48.90;;;;;;3606812;39;20124;-78
2021/06/13 09:23:27;;;;;;;2.78;1.20;;;25.80;54.80;;;;;;3606913;39;20035;-78
2021/06/13 09:26:07;;;;;;;6.72;2.15;;;25.90;55.20;;;;;;3606811;39;20229;-79
2021/06/13 09:28:40;;;;;;;5.90;1.83;;;25.90;52.40;;;;;;3604320;39;20047;-78
2021/06/13 09:31:12;;;;;;;6.15;1.70;;;25.60;54.80;;;;;;3606394;39;20177;-78
2021/06/13 09:33:40;;;;;;;17.20;3.72;;;25.50;55.00;;;;;;3605956;39;20260;-79
2021/06/13 09:36:07;;;;;;;5.22;2.28;;;25.60;55.70;;;;;;3606412;39;20318;-78
2021/06/13 09:38:37;;;;;;;5.13;2.15;;;25.20;54.20;;;;;;3606830;39;20040;-78
2021/06/13 09:41:02;;;;;;;4.60;1.90;;;25.10;54.60;;;;;;3606587;39;20035;-78
2021/06/13 09:43:33;;;;;;;4.28;1.83;;;25.20;55.60;;;;;;3606721;39;20047;-78
2021/06/13 09:46:02;;;;;;;4.00;1.52;;;25.30;55.70;;;;;;3605337;39;20340;-78
2021/06/13 09:48:30;;;;;;;7.97;2.42;;;25.60;56.00;;;;;;3606554;39;20043;-78
2021/06/13 09:51:00;;;;;;;4.05;1.70;;;26.10;55.70;;;;;;3606403;39;20349;-78
2021/06/13 09:53:33;;;;;;;4.18;1.75;;;26.30;54.00;;;;;;3606640;39;20046;-78
2021/06/13 09:56:09;;;;;;;6.63;2.42;;;26.10;52.70;;;;;;3602881;39;20051;-78
2021/06/13 09:58:45;;;;;;;6.72;2.53;;;25.90;52.00;;;;;;3606185;39;20039;-79
2021/06/13 10:01:10;;;;;;;4.30;2.00;;;26.00;54.40;;;;;;3605283;39;20148;-78
2021/06/13 10:03:38;;;;;;;4.93;1.80;;;26.10;54.40;;;;;;3606821;39;20303;-78
2021/06/13 10:06:09;;;;;;;9.52;2.67;;;26.20;54.40;;;;;;3606072;39;20050;-80
2021/06/13 10:08:36;;;;;;;5.82;2.30;;;26.30;53.70;;;;;;3606295;39;20050;-78
2021/06/13 10:11:03;;;;;;;5.10;2.83;;;26.70;54.40;;;;;;3596102;39;20043;-78
2021/06/13 10:14:14;;;;;;;6.00;2.55;;;26.80;54.80;;;;;;3606210;39;20430;-78
2021/06/13 10:16:51;;;;;;;6.38;2.03;;;26.60;45.50;;;;;;3584277;40;20157;-78
2021/06/13 10:19:20;;;;;;;5.35;2.58;;;26.30;47.60;;;;;;3603418;39;20042;-77
2021/06/13 10:21:52;;;;;;;6.30;2.53;;;26.20;54.30;;;;;;3606358;39;20824;-77
2021/06/13 10:24:33;;;;;;;4.57;1.60;;;26.20;53.00;;;;;;3605841;39;20047;-77
2021/06/13 10:27:05;;;;;;;7.43;3.10;;;26.10;49.30;;;;;;3605946;39;20040;-78
2021/06/13 10:29:33;;;;;;;4.05;1.90;;;26.10;53.90;;;;;;3606374;39;20058;-78
2021/06/13 10:32:01;;;;;;;6.90;2.22;;;26.30;53.10;;;;;;3606100;39;20072;-78
2021/06/13 10:34:28;;;;;;;6.15;2.22;;;26.50;53.90;;;;;;3606066;39;20326;-78
2021/06/13 10:36:58;;;;;;;8.40;2.65;;;26.70;53.80;;;;;;3606329;39;20120;-78
2021/06/13 10:39:29;;;;;;;9.82;2.75;;;26.60;53.60;;;;;;3605493;39;20112;-77
2021/06/13 10:41:56;;;;;;;5.30;2.95;;;26.20;52.40;;;;;;3605766;39;20131;-78
2021/06/13 10:44:25;;;;;;;4.80;2.72;;;25.90;53.00;;;;;;3606007;39;20521;-78
2021/06/13 10:47:09;;;;;;;7.28;2.38;;;25.90;53.40;;;;;;3605945;39;20053;-78
2021/06/13 10:49:40;;;;;;;5.75;2.28;;;26.00;52.00;;;;;;3604026;39;20032;-77
2021/06/13 10:52:10;;;;;;;5.05;1.85;;;26.10;50.80;;;;;;3605900;39;20039;-77
2021/06/13 10:54:50;;;;;;;6.00;2.50;;;26.10;52.90;;;;;;3606251;39;20132;-78
2021/06/13 10:57:16;;;;;;;7.35;2.42;;;26.00;53.00;;;;;;3604036;39;20052;-78
2021/06/13 10:59:45;;;;;;;5.45;2.25;;;25.90;53.30;;;;;;3606015;39;20059;-77
2021/06/13 11:02:13;;;;;;;5.97;2.67;;;25.80;51.80;;;;;;3605753;39;20075;-78
2021/06/13 11:04:54;;;;;;;4.20;2.35;;;25.60;51.50;;;;;;3605808;39;20148;-77
2021/06/13 11:07:29;;;;;;;6.60;2.38;;;25.60;49.00;;;;;;3606050;39;20036;-77
2021/06/13 11:10:05;;;;;;;7.78;2.55;;;25.80;50.00;;;;;;3605660;39;20413;-78
2021/06/13 11:12:53;;;;;;;9.60;2.90;;;26.00;52.40;;;;;;3605815;39;20043;-77
2021/06/13 11:15:29;;;;;;;5.72;2.15;;;26.10;48.40;;;;;;3605317;39;20048;-77
2021/06/13 11:17:56;;;;;;;6.05;2.47;;;26.00;52.10;;;;;;3605495;39;20075;-77
2021/06/13 11:20:46;;;;;;;6.07;2.47;;;26.10;53.00;;;;;;3605955;39;20052;-77
2021/06/13 11:23:21;;;;;;;6.63;2.22;;;26.10;52.60;;;;;;3604388;39;20039;-77
2021/06/13 11:25:49;;;;;;;9.43;2.55;;;26.20;50.70;;;;;;3605947;39;20047;-77
2021/06/13 11:28:19;;;;;;;4.38;2.38;;;26.30;53.00;;;;;;3605317;39;20047;-77
2021/06/13 11:30:52;;;;;;;4.20;2.72;;;26.40;52.00;;;;;;3605591;39;20056;-77
2021/06/13 11:33:39;;;;;;;6.25;2.00;;;26.50;51.60;;;;;;3605229;39;20039;-77
2021/06/13 11:36:17;;;;;;;5.43;2.05;;;26.50;49.60;;;;;;3605497;39;20035;-77
2021/06/13 11:38:48;;;;;;;5.57;1.70;;;26.60;48.00;;;;;;3605866;39;20424;-77
2021/06/13 11:41:34;;;;;;;6.07;2.65;;;26.40;51.70;;;;;;3605640;39;20036;-77
2021/06/13 11:44:04;;;;;;;4.15;2.28;;;26.60;48.00;;;;;;3605350;39;20128;-77
2021/06/13 11:46:33;;;;;;;7.10;2.63;;;26.70;51.40;;;;;;3605614;39;20044;-77
2021/06/13 11:49:00;;;;;;;3.35;1.75;;;26.80;50.80;;;;;;3605497;39;20155;-77
2021/06/13 11:51:26;;;;;;;7.25;2.17;;;26.90;50.20;;;;;;3605972;39;20401;-77
2021/06/13 11:53:55;;;;;;;3.20;1.75;;;27.00;49.90;;;;;;3596344;39;20039;-78
2021/06/13 11:56:42;;;;;;;5.57;2.00;;;27.00;49.70;;;;;;3605744;39;20039;-77
2021/06/13 11:59:22;;;;;;;4.28;1.35;;;26.90;46.50;;;;;;3605178;39;20050;-78
2021/06/13 12:01:59;;;;;;;5.43;1.60;;;27.00;47.40;;;;;;3604906;39;20040;-78
2021/06/13 12:04:28;;;;;;;5.50;2.03;;;27.10;48.60;;;;;;3605581;39;20044;-78
2021/06/13 12:06:58;;;;;;;5.55;2.65;;;27.10;48.20;;;;;;3605548;39;20035;-77
2021/06/13 12:09:29;;;;;;;3.92;2.05;;;27.10;49.00;;;;;;3606456;39;20039;-77
2021/06/13 12:12:07;;;;;;;4.65;2.13;;;27.20;48.20;;;;;;3606838;39;20036;-78
2021/06/13 12:14:37;;;;;;;5.07;1.52;;;27.20;47.50;;;;;;3603838;39;20119;-78
2021/06/13 12:17:20;;;;;;;4.90;1.90;;;27.20;48.40;;;;;;3606734;39;20289;-78
2021/06/13 12:19:48;;;;;;;5.25;1.75;;;27.30;48.40;;;;;;3606998;39;20044;-78
2021/06/13 12:22:49;;;;;;;4.57;2.03;;;27.40;47.60;;;;;;3606547;39;20050;-78
2021/06/13 12:27:44;;;;;;;6.68;1.77;;;27.70;47.20;;;;;;3607211;39;20494;-79
2021/06/13 12:30:12;;;;;;;4.47;1.23;;;27.90;46.80;;;;;;3606745;39;20032;-79
2021/06/13 12:32:39;;;;;;;8.93;2.45;;;28.20;46.10;;;;;;3606807;39;20270;-78
2021/06/13 12:35:11;;;;;;;4.20;2.03;;;28.30;46.50;;;;;;3605273;39;20035;-78
2021/06/13 12:37:38;;;;;;;4.38;2.00;;;28.40;46.30;;;;;;3606960;39;20128;-78
2021/06/13 12:40:11;;;;;;;4.60;1.42;;;28.50;46.00;;;;;;3606560;39;20071;-78
2021/06/13 12:42:38;;;;;;;4.40;1.63;;;28.50;45.50;;;;;;3604676;39;20047;-78
2021/06/13 12:45:09;;;;;;;4.55;2.08;;;28.60;46.20;;;;;;3605496;39;20047;-79
2021/06/13 12:47:36;;;;;;;5.53;1.98;;;28.70;43.90;;;;;;3606795;39;20032;-78
2021/06/13 12:50:03;;;;;;;4.50;1.25;;;28.50;45.20;;;;;;3606632;39;20050;-78
2021/06/13 12:52:29;;;;;;;6.43;1.67;;;28.40;43.70;;;;;;3606272;39;20047;-78
2021/06/13 12:55:05;;;;;;;3.55;1.38;;;28.20;45.20;;;;;;3606671;39;20039;-78
2021/06/13 12:57:32;;;;;;;2.35;1.55;;;28.20;43.60;;;;;;3606777;39;20219;-78